Time;durP1;ratioP1;P1;durP2;ratioP2;P2;SDS_P1;SDS_P2;PMS_P1;PMS_P2;Temp;Humidity;BMP_temperature;BMP_pressure;BME280_temperature;BME280_humidity;BME280_pressure;Samples;Min_cycle;Max_cycle;Signal;HPM_P1;HPM_P2
2022/11/15 00:01:23;;;;;;;26.00;15.15;;;9.20;85.00;;;;;;5033095;28;20033;-69
2022/11/15 00:03:52;;;;;;;26.83;15.35;;;9.20;85.10;;;;;;5044185;28;20052;-69
2022/11/15 00:06:18;;;;;;;20.08;12.15;;;9.20;85.30;;;;;;5036397;28;20033;-69
2022/11/15 00:08:43;;;;;;;37.85;18.52;;;9.20;85.30;;;;;;5033711;28;20084;-68
2022/11/15 00:11:11;;;;;;;32.03;15.80;;;9.20;85.40;;;;;;5052060;28;20119;-68
2022/11/15 00:13:37;;;;;;;25.52;12.98;;;9.20;85.60;;;;;;5049298;28;20021;-69
2022/11/15 00:16:03;;;;;;;17.85;9.65;;;9.20;85.60;;;;;;5040954;28;20014;-69
2022/11/15 00:18:29;;;;;;;26.30;14.90;;;9.30;85.60;;;;;;5030546;28;20029;-69
2022/11/15 00:20:55;;;;;;;29.55;16.45;;;9.30;85.70;;;;;;5030882;28;20487;-68
2022/11/15 00:23:21;;;;;;;29.08;16.30;;;9.20;85.90;;;;;;5031355;28;20029;-69
2022/11/15 00:25:54;;;;;;;28.67;16.00;;;9.20;86.50;;;;;;5039097;28;20388;-69
2022/11/15 00:28:20;;;;;;;20.42;12.95;;;9.10;86.80;;;;;;5044002;28;20101;-69
2022/11/15 00:30:45;;;;;;;26.65;14.55;;;9.20;87.00;;;;;;5041304;28;20171;-69
2022/11/15 00:33:11;;;;;;;26.42;15.43;;;9.20;87.10;;;;;;5033815;28;20025;-69
2022/11/15 00:35:36;;;;;;;28.25;17.15;;;9.20;87.20;;;;;;5041211;28;20088;-71
2022/11/15 00:38:02;;;;;;;25.30;14.93;;;9.20;87.50;;;;;;5029048;28;20627;-70
2022/11/15 00:40:28;;;;;;;24.60;14.43;;;9.10;87.60;;;;;;5031281;28;20029;-70
2022/11/15 00:42:54;;;;;;;25.90;15.32;;;9.20;87.80;;;;;;5041678;28;20055;-70
2022/11/15 00:45:19;;;;;;;23.85;14.57;;;9.20;87.80;;;;;;5048476;28;20063;-70
2022/11/15 00:47:46;;;;;;;23.15;14.02;;;9.30;87.70;;;;;;5040621;28;20037;-71
2022/11/15 00:50:12;;;;;;;21.75;13.75;;;9.20;87.50;;;;;;5034400;28;20032;-70
2022/11/15 00:52:37;;;;;;;23.77;14.85;;;9.30;87.50;;;;;;5030520;28;20468;-70
2022/11/15 00:55:04;;;;;;;18.77;12.43;;;9.30;87.50;;;;;;5031250;28;20048;-71
2022/11/15 00:57:29;;;;;;;17.88;11.65;;;9.30;87.50;;;;;;5033104;28;20033;-70
2022/11/15 00:59:55;;;;;;;18.58;12.07;;;9.40;87.40;;;;;;5049099;28;20032;-70
2022/11/15 01:02:20;;;;;;;22.55;13.98;;;9.30;87.40;;;;;;5033200;28;20041;-70
2022/11/15 01:04:46;;;;;;;21.23;13.68;;;9.30;87.60;;;;;;5039892;28;20039;-70
2022/11/15 01:07:12;;;;;;;18.63;12.43;;;9.30;88.00;;;;;;5038227;28;20032;-71
2022/11/15 01:09:37;;;;;;;16.73;11.27;;;9.30;88.00;;;;;;5036208;28;20025;-71
2022/11/15 01:12:03;;;;;;;18.23;12.35;;;9.30;88.20;;;;;;5042039;28;20021;-70
2022/11/15 01:14:29;;;;;;;22.75;14.00;;;9.30;88.10;;;;;;5031267;28;20546;-71
2022/11/15 01:16:54;;;;;;;19.42;13.27;;;9.40;88.20;;;;;;5045707;28;20040;-71
2022/11/15 01:19:20;;;;;;;20.75;13.82;;;9.40;88.20;;;;;;5030541;28;20040;-70
2022/11/15 01:21:49;;;;;;;19.17;13.05;;;9.40;88.10;;;;;;5038133;28;20040;-70
2022/11/15 01:24:14;;;;;;;17.30;11.38;;;9.40;88.20;;;;;;5047485;28;20121;-70
2022/11/15 01:26:40;;;;;;;17.58;12.35;;;9.50;88.10;;;;;;5029204;28;20068;-70
2022/11/15 01:29:05;;;;;;;18.15;12.07;;;9.50;88.00;;;;;;5033423;28;20029;-70
2022/11/15 01:31:31;;;;;;;16.83;11.27;;;9.60;87.90;;;;;;5042696;28;20124;-71
2022/11/15 01:33:56;;;;;;;21.27;14.93;;;9.60;87.80;;;;;;5047233;28;20025;-70
2022/11/15 01:36:22;;;;;;;19.67;12.65;;;9.60;87.90;;;;;;5040568;28;20033;-70
2022/11/15 01:38:55;;;;;;;19.20;12.00;;;9.60;87.90;;;;;;5037509;28;20807;-70
2022/11/15 01:41:24;;;;;;;21.23;13.68;;;9.70;87.90;;;;;;5044719;28;20029;-70
2022/11/15 01:43:53;;;;;;;21.73;13.32;;;9.70;87.90;;;;;;5046276;28;20549;-70
2022/11/15 01:46:40;;;;;;;21.15;13.35;;;9.70;87.90;;;;;;5045555;28;20025;-70
2022/11/15 01:49:16;;;;;;;20.40;14.10;;;9.70;87.80;;;;;;5045249;28;20090;-70
2022/11/15 01:51:42;;;;;;;18.60;11.80;;;9.80;87.80;;;;;;5039833;28;20147;-70
2022/11/15 01:54:15;;;;;;;16.02;10.52;;;9.80;87.80;;;;;;5036723;28;20112;-70
2022/11/15 01:56:47;;;;;;;16.67;10.98;;;9.80;87.70;;;;;;5042683;28;20025;-70
2022/11/15 01:59:13;;;;;;;16.10;11.65;;;9.90;87.60;;;;;;5048027;28;20026;-72
2022/11/15 02:01:40;;;;;;;17.02;11.77;;;9.90;87.40;;;;;;5037030;28;20511;-71
2022/11/15 02:04:18;;;;;;;17.45;12.00;;;10.00;87.40;;;;;;5044087;28;20036;-72
2022/11/15 02:06:46;;;;;;;19.90;12.18;;;10.00;87.40;;;;;;5043411;28;20035;-71
2022/11/15 02:09:12;;;;;;;18.42;12.07;;;10.00;87.30;;;;;;5044470;28;20040;-70
2022/11/15 02:11:38;;;;;;;18.42;12.52;;;10.00;87.30;;;;;;5041123;28;20025;-70
2022/11/15 02:14:06;;;;;;;19.05;12.65;;;10.00;87.30;;;;;;5037552;28;20030;-70
2022/11/15 02:17:08;;;;;;;18.70;11.63;;;10.10;87.30;;;;;;5040806;28;20025;-70
2022/11/15 02:19:33;;;;;;;16.02;11.05;;;10.10;87.50;;;;;;5049893;28;20029;-70
2022/11/15 02:22:29;;;;;;;15.15;11.73;;;10.10;87.30;;;;;;5049478;28;20048;-70
2022/11/15 02:25:03;;;;;;;14.07;10.80;;;10.10;87.30;;;;;;5049875;28;20041;-71
2022/11/15 02:28:06;;;;;;;15.32;11.30;;;10.20;87.30;;;;;;5049523;28;20029;-69
2022/11/15 02:30:45;;;;;;;16.40;10.25;;;10.20;87.20;;;;;;5036405;28;20506;-70
2022/11/15 02:33:38;;;;;;;17.23;12.02;;;10.20;87.70;;;;;;5037347;28;20029;-69
2022/11/15 02:36:16;;;;;;;16.13;11.52;;;10.20;87.30;;;;;;5039395;28;20025;-70
2022/11/15 02:38:59;;;;;;;16.92;10.80;;;10.20;87.40;;;;;;5043696;28;20021;-70
2022/11/15 02:41:42;;;;;;;17.60;11.85;;;10.20;87.40;;;;;;5042647;28;20104;-69
2022/11/15 02:44:33;;;;;;;17.80;12.80;;;10.20;87.40;;;;;;5041054;28;20083;-70
2022/11/15 02:47:13;;;;;;;16.17;11.70;;;10.30;87.60;;;;;;5034291;28;20115;-70
2022/11/15 02:49:43;;;;;;;17.27;12.25;;;10.20;87.60;;;;;;5036011;28;20036;-71
2022/11/15 02:52:09;;;;;;;14.20;10.48;;;10.20;87.80;;;;;;5044515;28;20453;-70
2022/11/15 02:54:35;;;;;;;24.48;14.70;;;10.30;88.00;;;;;;5046058;28;20033;-70
2022/11/15 02:57:13;;;;;;;27.95;18.40;;;10.30;88.00;;;;;;5038046;28;20032;-69
2022/11/15 03:00:10;;;;;;;18.30;12.68;;;10.30;88.00;;;;;;5042479;28;20638;-69
2022/11/15 03:02:44;;;;;;;15.70;11.13;;;10.30;88.10;;;;;;5034886;28;20057;-69
2022/11/15 03:05:27;;;;;;;18.05;12.10;;;10.40;87.90;;;;;;5042405;28;20060;-68
2022/11/15 03:08:00;;;;;;;16.13;11.90;;;10.40;87.90;;;;;;5044736;28;20438;-69
2022/11/15 03:10:42;;;;;;;15.98;11.52;;;10.40;87.80;;;;;;5039530;28;20419;-70
2022/11/15 03:13:19;;;;;;;19.08;12.95;;;10.40;88.00;;;;;;5045195;28;20437;-71
2022/11/15 03:16:02;;;;;;;14.80;10.70;;;10.40;88.30;;;;;;5044202;28;20021;-71
2022/11/15 03:18:31;;;;;;;;;;;10.50;88.30;;;;;;5034949;28;20108;-71
2022/11/15 03:21:02;;;;;;;15.93;10.75;;;10.50;87.90;;;;;;5049496;28;19999;-70
2022/11/15 03:23:30;;;;;;;15.73;10.93;;;10.60;88.00;;;;;;5048360;28;20503;-70
2022/11/15 03:25:58;;;;;;;15.95;10.65;;;10.60;87.90;;;;;;5042265;28;20052;-71
2022/11/15 03:28:42;;;;;;;14.77;11.30;;;10.70;87.90;;;;;;5032172;28;20056;-71
2022/11/15 03:33:57;;;;;;;13.68;9.73;;;10.70;87.80;;;;;;5033814;28;20032;-71
2022/11/15 03:36:24;;;;;;;14.75;11.10;;;10.70;87.80;;;;;;5031733;28;20112;-71
2022/11/15 03:38:58;;;;;;;13.02;10.23;;;10.70;87.80;;;;;;5030096;28;20025;-71
2022/11/15 03:41:31;;;;;;;13.02;9.27;;;10.80;87.80;;;;;;5034070;28;20030;-70
2022/11/15 03:44:28;;;;;;;15.30;10.48;;;10.90;87.80;;;;;;5031225;28;20618;-70
2022/11/15 03:47:18;;;;;;;12.00;8.95;;;10.90;87.70;;;;;;5042893;28;20030;-72
2022/11/15 03:49:55;;;;;;;11.75;9.20;;;11.00;87.60;;;;;;5032403;28;20071;-72
2022/11/15 03:52:22;;;;;;;15.07;10.73;;;11.00;87.50;;;;;;5037411;28;20029;-70
2022/11/15 03:54:55;;;;;;;14.07;11.23;;;11.10;87.50;;;;;;5031570;28;20344;-70
2022/11/15 03:57:21;;;;;;;14.73;10.82;;;11.10;87.50;;;;;;5038756;28;20057;-69
2022/11/15 03:59:46;;;;;;;14.57;10.57;;;11.10;87.60;;;;;;5030837;28;20064;-69
2022/11/15 04:02:13;;;;;;;15.25;10.55;;;11.10;87.70;;;;;;5031267;28;20130;-69
2022/11/15 04:04:38;;;;;;;15.60;10.90;;;11.10;87.80;;;;;;5048965;28;20094;-69
2022/11/15 04:07:04;;;;;;;15.60;11.85;;;11.20;87.70;;;;;;5048407;28;20418;-69
2022/11/15 04:09:29;;;;;;;15.73;12.48;;;11.20;87.80;;;;;;5040820;28;20033;-69
2022/11/15 04:11:55;;;;;;;17.02;12.05;;;11.20;88.00;;;;;;5033674;28;20076;-72
2022/11/15 04:14:20;;;;;;;22.27;15.98;;;11.20;88.10;;;;;;5034760;28;20025;-72
2022/11/15 04:16:46;;;;;;;18.02;13.55;;;11.30;88.90;;;;;;5045916;28;20029;-71
2022/11/15 04:24:39;;;;;;;19.58;14.70;;;11.40;88.90;;;;;;5032306;28;20087;-70
2022/11/15 04:27:05;;;;;;;20.83;15.07;;;11.40;89.20;;;;;;5045307;28;20036;-70
2022/11/15 04:29:36;;;;;;;16.45;11.32;;;11.40;89.40;;;;;;5049079;28;20031;-70
2022/11/15 04:32:04;;;;;;;17.30;12.48;;;11.40;89.50;;;;;;5044466;28;20079;-70
2022/11/15 04:34:30;;;;;;;19.80;14.48;;;11.50;89.50;;;;;;5040980;28;20426;-69
2022/11/15 04:37:15;;;;;;;16.27;11.70;;;11.50;89.60;;;;;;5032915;28;20037;-69
2022/11/15 04:39:42;;;;;;;20.08;13.73;;;11.50;89.70;;;;;;5029614;28;20029;-69
2022/11/15 04:42:08;;;;;;;19.60;13.35;;;11.60;89.70;;;;;;5036100;28;20373;-69
2022/11/15 04:44:34;;;;;;;18.73;13.57;;;11.60;89.80;;;;;;5035198;28;20033;-70
2022/11/15 04:47:00;;;;;;;15.98;11.32;;;11.60;89.70;;;;;;5034060;28;20040;-70
2022/11/15 04:49:25;;;;;;;13.85;9.80;;;11.70;89.70;;;;;;5043606;28;20110;-69
2022/11/15 04:51:51;;;;;;;16.90;12.60;;;11.70;89.60;;;;;;5035745;28;20036;-70
2022/11/15 04:54:16;;;;;;;17.17;13.02;;;11.70;89.50;;;;;;5030735;28;20542;-70
2022/11/15 04:56:42;;;;;;;15.85;12.32;;;11.80;89.50;;;;;;5031467;28;20403;-71
2022/11/15 04:59:08;;;;;;;16.70;11.25;;;11.80;89.50;;;;;;5041421;28;20029;-72
2022/11/15 05:01:33;;;;;;;17.52;12.93;;;11.80;89.50;;;;;;5040794;28;20025;-68
2022/11/15 05:06:43;;;;;;;19.73;14.20;;;11.90;89.70;;;;;;5047827;28;20530;-69
2022/11/15 05:09:08;;;;;;;16.67;12.98;;;11.90;89.80;;;;;;5038373;28;20037;-70
2022/11/15 05:11:34;;;;;;;16.15;11.77;;;11.90;90.00;;;;;;5043224;28;20017;-68
2022/11/15 05:13:59;;;;;;;19.70;15.60;;;11.90;90.00;;;;;;5047176;28;20035;-70
2022/11/15 05:16:25;;;;;;;20.38;12.98;;;12.00;90.00;;;;;;5044102;28;20048;-69
2022/11/15 05:18:54;;;;;;;20.25;14.05;;;11.90;90.00;;;;;;5037278;28;20037;-70
2022/11/15 05:21:21;;;;;;;21.50;15.70;;;12.00;90.10;;;;;;5036246;28;20021;-69
2022/11/15 05:23:46;;;;;;;15.38;11.82;;;12.00;90.10;;;;;;5034869;28;20504;-69
2022/11/15 05:26:14;;;;;;;17.73;13.10;;;12.00;90.10;;;;;;5039243;28;20108;-70
2022/11/15 05:28:40;;;;;;;17.90;13.10;;;12.00;90.10;;;;;;5038280;28;20471;-68
2022/11/15 05:31:11;;;;;;;21.38;15.77;;;12.00;90.10;;;;;;5041735;28;20089;-68
2022/11/15 05:33:42;;;;;;;17.92;12.73;;;12.00;90.20;;;;;;5029350;28;20025;-69
2022/11/15 05:36:23;;;;;;;17.10;12.10;;;12.00;90.30;;;;;;5045159;28;20025;-69
2022/11/15 05:38:50;;;;;;;16.00;11.30;;;12.00;90.30;;;;;;5044914;28;20025;-70
2022/11/15 05:41:18;;;;;;;16.48;12.38;;;12.00;90.20;;;;;;5039405;28;20030;-70
2022/11/15 05:43:44;;;;;;;14.52;10.70;;;12.10;90.20;;;;;;5035903;28;20028;-71
2022/11/15 05:46:12;;;;;;;15.98;11.55;;;12.10;90.10;;;;;;5037835;28;20027;-70
2022/11/15 05:48:40;;;;;;;19.33;12.38;;;12.10;90.00;;;;;;5036648;28;20024;-70
2022/11/15 05:51:07;;;;;;;14.45;10.52;;;12.10;90.00;;;;;;5045920;28;20025;-70
2022/11/15 05:53:34;;;;;;;12.73;9.90;;;12.10;90.00;;;;;;5039802;28;20031;-70
2022/11/15 05:56:00;;;;;;;19.75;12.98;;;12.10;90.00;;;;;;5036165;28;20578;-70
2022/11/15 05:58:25;;;;;;;12.75;8.75;;;12.10;90.00;;;;;;5031018;28;20097;-70
2022/11/15 06:00:51;;;;;;;16.45;11.93;;;12.10;90.00;;;;;;5029151;28;20522;-70
2022/11/15 06:03:16;;;;;;;15.82;10.30;;;12.10;90.00;;;;;;5042735;28;20040;-70
2022/11/15 06:05:42;;;;;;;14.35;10.25;;;12.10;90.00;;;;;;5036864;28;20392;-70
2022/11/15 06:08:07;;;;;;;15.32;11.60;;;12.10;90.00;;;;;;5039756;28;20792;-70
2022/11/15 06:10:33;;;;;;;13.45;10.35;;;12.10;90.00;;;;;;5038141;28;20029;-69
2022/11/15 06:13:04;;;;;;;16.85;11.90;;;12.10;90.00;;;;;;5035893;28;20068;-70
2022/11/15 06:15:29;;;;;;;14.88;10.77;;;12.10;90.10;;;;;;5035009;28;20025;-69
2022/11/15 06:17:58;;;;;;;15.32;10.95;;;12.10;90.10;;;;;;5038429;28;20613;-69
2022/11/15 06:20:28;;;;;;;19.67;12.57;;;12.10;90.10;;;;;;5042455;28;20036;-70
2022/11/15 06:23:02;;;;;;;19.90;11.95;;;12.10;90.20;;;;;;5046869;28;20498;-70
2022/11/15 06:25:29;;;;;;;16.48;10.77;;;12.10;90.20;;;;;;5040575;28;21150;-70
2022/11/15 06:27:55;;;;;;;15.18;9.68;;;12.10;90.10;;;;;;5043622;28;20052;-70
2022/11/15 06:30:22;;;;;;;15.20;11.48;;;12.10;90.10;;;;;;5041830;28;20033;-70
2022/11/15 06:32:47;;;;;;;15.93;10.98;;;12.10;90.00;;;;;;5041141;28;20033;-69
2022/11/15 06:35:14;;;;;;;16.10;10.50;;;12.10;90.00;;;;;;5041975;28;20014;-70
2022/11/15 06:37:40;;;;;;;13.32;9.68;;;12.10;90.00;;;;;;5041590;28;20025;-70
2022/11/15 06:40:08;;;;;;;15.82;11.07;;;12.10;90.00;;;;;;5041288;28;20037;-71
2022/11/15 06:42:33;;;;;;;11.93;9.23;;;12.10;90.10;;;;;;5048159;28;20479;-70
2022/11/15 06:44:59;;;;;;;14.52;10.57;;;12.10;90.10;;;;;;5045216;28;20038;-70
2022/11/15 06:47:25;;;;;;;14.73;10.93;;;12.10;90.10;;;;;;5051162;28;20025;-70
2022/11/15 06:49:50;;;;;;;16.50;11.32;;;12.10;90.10;;;;;;5045825;28;21844;-70
2022/11/15 06:52:18;;;;;;;13.57;9.65;;;12.00;90.10;;;;;;5049068;28;20021;-70
2022/11/15 06:54:44;;;;;;;15.27;11.55;;;12.10;90.50;;;;;;5036892;28;20021;-70
2022/11/15 06:57:10;;;;;;;15.60;11.07;;;12.00;90.20;;;;;;5047116;28;21343;-70
2022/11/15 06:59:35;;;;;;;14.55;10.30;;;12.10;90.30;;;;;;5039328;28;20126;-70
2022/11/15 07:02:01;;;;;;;18.08;12.10;;;12.10;90.20;;;;;;5038865;28;20162;-70
2022/11/15 07:04:27;;;;;;;15.05;11.15;;;12.10;90.20;;;;;;5041431;28;20119;-70
2022/11/15 07:06:52;;;;;;;16.17;12.15;;;12.10;90.30;;;;;;5042792;28;20187;-70
2022/11/15 07:09:18;;;;;;;12.55;10.23;;;12.10;90.30;;;;;;5047522;28;20644;-70
2022/11/15 07:11:43;;;;;;;15.38;11.52;;;12.10;90.30;;;;;;5044244;28;20025;-69
2022/11/15 07:14:09;;;;;;;14.63;11.30;;;12.10;90.40;;;;;;5040827;28;20031;-70
2022/11/15 07:16:36;;;;;;;16.80;11.77;;;12.10;90.40;;;;;;5044058;28;20049;-70
2022/11/15 07:19:01;;;;;;;18.00;11.82;;;12.10;90.40;;;;;;5042962;28;20080;-69
2022/11/15 07:21:27;;;;;;;13.38;11.05;;;12.10;90.40;;;;;;5048785;28;20554;-70
2022/11/15 07:23:53;;;;;;;14.43;10.23;;;12.20;90.40;;;;;;5041619;28;20028;-71
2022/11/15 07:26:18;;;;;;;12.63;9.43;;;12.20;90.30;;;;;;5040995;28;20225;-71
2022/11/15 07:28:44;;;;;;;14.52;10.40;;;12.20;90.30;;;;;;5053879;28;20024;-71
2022/11/15 07:31:09;;;;;;;13.05;10.60;;;12.30;90.30;;;;;;5047804;28;20048;-71
2022/11/15 07:33:35;;;;;;;13.13;10.27;;;12.20;90.20;;;;;;5043111;28;20109;-70
2022/11/15 07:36:02;;;;;;;16.80;11.73;;;12.30;90.50;;;;;;5042328;28;20021;-70
2022/11/15 07:38:28;;;;;;;17.50;11.02;;;12.20;90.20;;;;;;5043271;28;20169;-70
2022/11/15 07:40:59;;;;;;;14.20;10.52;;;12.20;90.30;;;;;;5035559;28;20498;-70
2022/11/15 07:43:25;;;;;;;19.77;14.38;;;12.20;90.30;;;;;;5042690;28;20025;-71
2022/11/15 07:45:51;;;;;;;18.35;14.50;;;12.20;90.40;;;;;;5044703;28;20025;-68
2022/11/15 07:48:16;;;;;;;15.88;12.18;;;12.20;90.60;;;;;;5048522;28;20102;-70
2022/11/15 07:50:42;;;;;;;17.70;12.07;;;12.20;90.70;;;;;;5048396;28;20075;-70
2022/11/15 07:53:09;;;;;;;17.45;11.63;;;12.20;90.70;;;;;;5044966;28;20029;-71
2022/11/15 07:55:34;;;;;;;14.90;10.85;;;12.20;90.70;;;;;;5043364;28;20033;-70
2022/11/15 07:58:02;;;;;;;14.23;10.23;;;12.30;90.70;;;;;;5038043;28;20025;-70
2022/11/15 08:00:27;;;;;;;17.55;13.13;;;12.20;90.70;;;;;;5042080;28;20017;-70
2022/11/15 08:03:00;;;;;;;11.80;9.05;;;12.30;90.80;;;;;;5044098;28;20112;-70
2022/11/15 08:05:26;;;;;;;11.77;9.02;;;12.30;90.80;;;;;;5040861;28;20025;-70
2022/11/15 08:07:51;;;;;;;16.98;12.00;;;12.30;90.70;;;;;;5042617;28;20029;-70
2022/11/15 08:10:18;;;;;;;14.02;10.13;;;12.40;90.70;;;;;;5039276;28;20033;-70
2022/11/15 08:12:44;;;;;;;13.90;10.13;;;12.40;90.70;;;;;;5046947;28;20436;-69
2022/11/15 08:15:10;;;;;;;12.57;9.38;;;12.40;90.60;;;;;;5038425;28;20025;-70
2022/11/15 08:17:35;;;;;;;15.48;10.73;;;12.40;90.60;;;;;;5043008;28;20505;-70
2022/11/15 08:20:01;;;;;;;11.18;8.68;;;12.40;90.60;;;;;;5043519;28;20027;-70
2022/11/15 08:22:26;;;;;;;14.45;9.70;;;12.50;90.60;;;;;;5044708;28;20035;-70
2022/11/15 08:24:52;;;;;;;12.15;9.43;;;12.50;90.50;;;;;;5044353;28;20108;-70
2022/11/15 08:27:18;;;;;;;13.52;10.10;;;12.50;90.50;;;;;;5035753;28;20034;-70
2022/11/15 08:29:44;;;;;;;11.65;9.27;;;12.60;90.50;;;;;;5036928;28;20017;-69
2022/11/15 08:32:10;;;;;;;12.20;8.52;;;12.60;90.50;;;;;;5042429;28;20176;-70
2022/11/15 08:34:37;;;;;;;12.15;8.75;;;12.60;90.50;;;;;;5045054;28;20037;-69
2022/11/15 08:37:03;;;;;;;13.48;9.05;;;12.60;90.50;;;;;;5041770;28;20021;-70
2022/11/15 08:39:29;;;;;;;11.75;8.68;;;12.70;90.50;;;;;;5045185;28;20032;-70
2022/11/15 08:41:55;;;;;;;14.88;9.45;;;12.70;90.40;;;;;;5039774;28;20629;-70
2022/11/15 08:44:20;;;;;;;8.23;6.07;;;12.70;90.30;;;;;;5047294;28;20040;-70
2022/11/15 08:46:46;;;;;;;11.35;7.47;;;12.80;90.30;;;;;;5033924;28;20079;-69
2022/11/15 08:49:12;;;;;;;10.50;8.15;;;12.80;90.30;;;;;;5042586;28;20021;-70
2022/11/15 08:51:37;;;;;;;10.43;8.27;;;12.80;90.30;;;;;;5048260;28;20025;-70
2022/11/15 08:54:03;;;;;;;16.05;10.70;;;12.80;90.20;;;;;;5049599;28;20032;-69
2022/11/15 08:56:29;;;;;;;13.40;10.07;;;12.80;90.30;;;;;;5044178;28;20491;-70
2022/11/15 08:58:54;;;;;;;15.18;10.88;;;12.80;90.30;;;;;;5034723;28;20109;-69
2022/11/15 09:01:21;;;;;;;14.93;10.88;;;12.80;90.40;;;;;;5036502;28;20037;-70
2022/11/15 09:03:46;;;;;;;12.55;8.88;;;12.70;90.40;;;;;;5042211;28;20102;-70
2022/11/15 09:06:12;;;;;;;10.52;9.00;;;12.80;90.40;;;;;;5044003;28;20128;-69
2022/11/15 09:08:38;;;;;;;13.32;10.45;;;12.80;90.40;;;;;;5036077;28;20033;-70
2022/11/15 09:11:07;;;;;;;17.00;12.23;;;12.80;90.30;;;;;;5044319;28;20025;-70
2022/11/15 09:13:33;;;;;;;12.35;9.18;;;12.80;90.30;;;;;;5039096;28;20029;-70
2022/11/15 09:16:00;;;;;;;18.60;11.65;;;12.90;90.30;;;;;;5035885;28;20025;-69
2022/11/15 09:18:26;;;;;;;14.70;10.40;;;12.90;90.30;;;;;;5034910;28;20029;-70
2022/11/15 09:20:56;;;;;;;11.35;9.25;;;12.80;90.20;;;;;;5044283;28;20387;-69
2022/11/15 09:23:22;;;;;;;13.10;10.15;;;12.80;90.20;;;;;;5045128;28;20459;-69
2022/11/15 09:25:47;;;;;;;13.57;9.40;;;12.80;90.30;;;;;;5044252;28;20056;-69
2022/11/15 09:28:13;;;;;;;13.10;9.40;;;12.80;90.50;;;;;;5037853;28;20188;-69
2022/11/15 09:30:38;;;;;;;13.52;8.35;;;12.80;90.20;;;;;;5046339;28;20155;-70
2022/11/15 09:33:08;;;;;;;10.93;7.95;;;12.90;90.50;;;;;;5042429;28;20148;-70
2022/11/15 09:35:34;;;;;;;10.25;7.43;;;12.90;90.20;;;;;;5045289;28;20025;-69
2022/11/15 09:38:00;;;;;;;11.98;7.05;;;12.90;90.10;;;;;;5042364;28;20499;-70
2022/11/15 09:40:26;;;;;;;11.93;8.30;;;12.90;90.10;;;;;;5040287;28;20167;-70
2022/11/15 09:43:04;;;;;;;10.23;7.40;;;12.80;90.00;;;;;;5035850;28;20025;-70
2022/11/15 09:46:05;;;;;;;12.05;7.95;;;12.80;90.10;;;;;;5037324;28;20629;-69
2022/11/15 09:48:50;;;;;;;11.93;7.95;;;12.80;90.10;;;;;;5039765;28;20499;-69
2022/11/15 09:51:46;;;;;;;10.77;8.00;;;12.80;90.10;;;;;;5040050;28;20034;-70
2022/11/15 09:54:37;;;;;;;10.38;7.57;;;12.80;90.10;;;;;;5047243;28;20032;-69
2022/11/15 09:57:10;;;;;;;13.73;7.30;;;12.90;90.00;;;;;;5045609;28;20036;-69
2022/11/15 09:59:55;;;;;;;10.05;7.50;;;12.90;90.00;;;;;;5051116;28;20045;-69
2022/11/15 10:02:53;;;;;;;11.23;8.35;;;13.00;90.00;;;;;;5046448;28;20043;-69
2022/11/15 10:05:22;;;;;;;10.32;6.75;;;13.00;89.80;;;;;;5047384;28;20065;-69
2022/11/15 10:08:15;;;;;;;8.82;7.20;;;13.00;89.60;;;;;;5049906;28;20514;-69
2022/11/15 10:10:47;;;;;;;10.90;8.15;;;13.10;89.40;;;;;;5041086;28;20391;-70
2022/11/15 10:13:21;;;;;;;11.15;7.40;;;13.10;89.10;;;;;;5041375;28;20171;-69
2022/11/15 10:15:48;;;;;;;10.40;6.70;;;13.10;88.80;;;;;;5042480;28;20029;-69
2022/11/15 10:18:33;;;;;;;8.45;6.70;;;13.10;88.70;;;;;;5044367;28;20022;-69
2022/11/15 10:21:08;;;;;;;9.80;7.55;;;13.10;88.60;;;;;;5049181;28;20533;-69
2022/11/15 10:23:34;;;;;;;9.73;7.18;;;13.10;89.00;;;;;;5047701;28;20025;-69
2022/11/15 10:26:00;;;;;;;9.45;6.78;;;13.10;88.20;;;;;;5050213;28;20025;-69
2022/11/15 10:28:28;;;;;;;9.98;6.55;;;13.10;88.10;;;;;;5043136;28;20548;-69
2022/11/15 10:30:56;;;;;;;10.07;6.80;;;13.00;87.70;;;;;;5042004;28;20491;-69
2022/11/15 10:34:10;;;;;;;9.55;6.20;;;13.00;87.60;;;;;;5044957;28;20032;-69
2022/11/15 10:36:35;;;;;;;6.18;4.53;;;12.90;87.20;;;;;;5041320;28;20040;-69
2022/11/15 10:39:03;;;;;;;7.32;5.43;;;13.00;87.40;;;;;;5050266;28;20758;-69
2022/11/15 10:41:29;;;;;;;5.75;4.68;;;12.90;87.20;;;;;;5040999;28;20777;-70
2022/11/15 10:44:16;;;;;;;6.32;3.85;;;13.00;87.10;;;;;;5035608;28;20175;-70
2022/11/15 10:46:43;;;;;;;6.38;3.78;;;13.10;87.10;;;;;;5041205;28;20522;-70
2022/11/15 10:49:25;;;;;;;5.68;3.60;;;13.10;87.00;;;;;;5038609;28;20025;-70
2022/11/15 10:52:14;;;;;;;7.50;4.57;;;13.30;86.90;;;;;;5044495;28;20021;-70
2022/11/15 10:54:46;;;;;;;4.05;3.30;;;13.40;86.10;;;;;;5037184;28;20024;-69
2022/11/15 10:57:21;;;;;;;4.53;3.83;;;13.40;85.50;;;;;;5043761;28;20036;-69
2022/11/15 10:59:50;;;;;;;5.70;3.47;;;13.40;85.20;;;;;;5043744;28;20033;-69
2022/11/15 11:02:34;;;;;;;7.20;3.63;;;13.40;84.60;;;;;;5046855;28;20032;-69
2022/11/15 11:05:02;;;;;;;4.45;3.17;;;13.40;84.30;;;;;;5038997;28;20029;-69
2022/11/15 11:07:34;;;;;;;5.05;3.67;;;13.40;84.00;;;;;;5035533;28;20087;-70
2022/11/15 11:10:19;;;;;;;;;;;13.30;83.40;;;;;;5036897;28;20026;-70
2022/11/15 11:12:45;;;;;;;3.85;2.40;;;13.40;83.30;;;;;;5047006;28;19924;-69
2022/11/15 11:15:13;;;;;;;6.80;3.15;;;13.30;82.90;;;;;;5043337;28;20025;-67
2022/11/15 11:18:15;;;;;;;5.28;3.00;;;13.30;81.80;;;;;;5038222;28;20113;-69
2022/11/15 11:20:49;;;;;;;6.05;2.60;;;13.30;81.20;;;;;;5049712;28;20036;-69
2022/11/15 11:23:43;;;;;;;3.55;2.35;;;13.30;80.30;;;;;;5049438;28;20029;-69
2022/11/15 11:26:33;;;;;;;3.40;2.20;;;13.30;80.30;;;;;;5032447;28;20036;-69
2022/11/15 11:29:20;;;;;;;5.25;2.70;;;13.40;80.20;;;;;;5031343;28;20500;-69
2022/11/15 11:32:19;;;;;;;3.78;2.30;;;13.30;78.90;;;;;;5045473;28;20105;-69
2022/11/15 11:34:50;;;;;;;3.55;1.85;;;13.40;78.90;;;;;;5050269;28;20029;-69
2022/11/15 11:37:34;;;;;;;4.47;2.40;;;13.40;78.50;;;;;;5049257;28;20027;-69
2022/11/15 11:40:24;;;;;;;2.78;1.80;;;13.50;77.50;;;;;;5050678;28;20021;-69
2022/11/15 11:42:58;;;;;;;4.20;2.20;;;13.60;77.50;;;;;;5041233;28;20372;-69
2022/11/15 11:45:34;;;;;;;4.07;2.13;;;13.70;76.30;;;;;;5048649;28;21694;-70
2022/11/15 11:48:03;;;;;;;5.70;2.25;;;13.80;75.60;;;;;;5043081;28;20025;-68
2022/11/15 11:50:28;;;;;;;3.75;1.90;;;14.50;73.50;;;;;;5035441;28;20032;-68
2022/11/15 11:52:57;;;;;;;3.67;1.75;;;15.60;69.20;;;;;;5038216;28;20026;-67
2022/11/15 11:55:39;;;;;;;3.95;1.73;;;16.30;66.30;;;;;;5045847;28;20092;-68
2022/11/15 11:58:13;;;;;;;3.10;1.70;;;16.80;64.60;;;;;;5046856;28;20261;-68
2022/11/15 12:00:45;;;;;;;3.53;2.08;;;16.60;63.50;;;;;;5045308;28;20030;-68
2022/11/15 12:03:29;;;;;;;;;;;15.90;64.40;;;;;;5044563;28;20041;-67
2022/11/15 12:06:26;;;;;;;3.67;1.45;;;15.20;65.90;;;;;;5039173;28;19909;-68
2022/11/15 12:09:17;;;;;;;5.93;2.00;;;14.80;67.90;;;;;;5040461;28;20049;-69
2022/11/15 12:11:54;;;;;;;3.05;1.55;;;14.60;69.10;;;;;;5043861;28;20053;-68
2022/11/15 12:14:50;;;;;;;2.88;1.60;;;15.20;68.80;;;;;;5040671;28;20033;-68
2022/11/15 12:17:21;;;;;;;5.72;1.80;;;15.60;66.90;;;;;;5043649;28;20507;-68
2022/11/15 12:19:46;;;;;;;3.33;1.65;;;16.10;65.50;;;;;;5043123;28;20017;-68
2022/11/15 12:22:52;;;;;;;2.75;1.30;;;16.10;63.50;;;;;;5044015;28;20387;-68
2022/11/15 12:25:46;;;;;;;4.00;1.60;;;16.00;64.30;;;;;;5045122;28;20033;-68
2022/11/15 12:28:40;;;;;;;4.50;1.95;;;16.00;63.60;;;;;;5044056;28;20025;-68
2022/11/15 12:31:16;;;;;;;4.63;1.88;;;15.80;63.70;;;;;;5048898;28;20290;-69
2022/11/15 12:33:45;;;;;;;2.10;1.70;;;15.80;63.30;;;;;;5042795;28;20021;-68
2022/11/15 12:36:23;;;;;;;3.42;1.50;;;15.80;63.90;;;;;;5042108;28;20044;-69
2022/11/15 12:39:00;;;;;;;4.88;1.73;;;15.80;64.30;;;;;;5042575;28;20028;-68
2022/11/15 12:41:34;;;;;;;3.47;1.63;;;15.70;63.60;;;;;;5047150;28;20029;-68
2022/11/15 12:44:01;;;;;;;3.47;1.65;;;15.60;63.40;;;;;;5044120;28;20040;-68
2022/11/15 12:46:29;;;;;;;3.83;1.48;;;15.40;63.10;;;;;;5043861;28;20021;-68
2022/11/15 12:49:27;;;;;;;3.15;1.40;;;15.30;63.50;;;;;;5040664;28;20028;-68
2022/11/15 12:51:58;;;;;;;3.58;1.30;;;15.40;63.90;;;;;;5029715;28;20106;-69
2022/11/15 12:54:24;;;;;;;5.43;1.20;;;15.40;63.10;;;;;;5044015;28;20104;-68
2022/11/15 12:57:07;;;;;;;3.60;1.13;;;15.50;63.00;;;;;;5043133;28;20128;-68
2022/11/15 13:00:01;;;;;;;2.67;1.50;;;15.60;63.00;;;;;;5036592;28;20033;-68
2022/11/15 13:02:45;;;;;;;2.05;1.10;;;15.40;62.20;;;;;;5043481;28;20052;-70
2022/11/15 13:05:13;;;;;;;3.67;1.25;;;15.40;62.50;;;;;;5042720;28;20090;-69
2022/11/15 13:07:39;;;;;;;3.45;1.33;;;15.20;62.80;;;;;;5042190;28;20025;-69